createdAt,value
2019-03-25T00:02:28.119Z,5.90
2019-03-25T00:04:56.550Z,5.90
2019-03-25T00:07:24.933Z,5.80
2019-03-25T00:09:53.452Z,5.80
2019-03-25T00:12:21.864Z,5.70
2019-03-25T00:14:50.260Z,5.80
2019-03-25T00:17:18.700Z,5.80
2019-03-25T00:19:47.090Z,5.80
2019-03-25T00:22:15.502Z,5.80
2019-03-25T00:24:44.038Z,5.80
2019-03-25T00:27:12.448Z,5.80
2019-03-25T00:29:40.846Z,5.80
2019-03-25T00:32:10.311Z,5.80
2019-03-25T00:34:38.739Z,5.80
2019-03-25T00:37:07.137Z,5.80
2019-03-25T00:39:35.546Z,5.80
2019-03-25T00:42:04.007Z,5.70
2019-03-25T00:44:32.503Z,5.70
2019-03-25T00:47:03.899Z,5.60
2019-03-25T00:49:32.278Z,5.50
2019-03-25T00:52:00.689Z,5.40
2019-03-25T00:54:29.069Z,5.40
2019-03-25T00:56:57.470Z,5.40
2019-03-25T00:59:26.009Z,5.40
2019-03-25T01:01:54.401Z,5.40
2019-03-25T01:04:22.844Z,5.40
2019-03-25T01:06:51.234Z,5.30
2019-03-25T01:09:19.651Z,5.20
2019-03-25T01:11:49.337Z,5.10
2019-03-25T01:14:18.119Z,5.10
2019-03-25T01:16:46.413Z,5.10
2019-03-25T01:19:14.943Z,4.90
2019-03-25T01:21:43.402Z,4.90
2019-03-25T01:24:11.822Z,4.90
2019-03-25T01:26:40.222Z,4.80
2019-03-25T01:29:08.692Z,4.90
2019-03-25T01:31:37.061Z,4.90
2019-03-25T01:34:15.682Z,5.00
2019-03-25T01:36:44.109Z,4.90
2019-03-25T01:39:12.479Z,4.90
2019-03-25T01:41:41.027Z,4.90
2019-03-25T01:44:09.435Z,4.90
2019-03-25T01:46:37.839Z,5.00
2019-03-25T01:49:06.221Z,4.80
2019-03-25T01:51:34.666Z,4.80
2019-03-25T01:54:03.069Z,4.70
2019-03-25T01:56:31.470Z,4.70
2019-03-25T01:58:59.935Z,4.80
2019-03-25T02:01:28.339Z,4.90
2019-03-25T02:03:56.767Z,5.00
2019-03-25T02:06:25.205Z,4.90
2019-03-25T02:08:53.587Z,4.80
2019-03-25T02:11:22.396Z,4.90
2019-03-25T02:13:51.005Z,4.80
2019-03-25T02:16:19.442Z,4.70
2019-03-25T02:18:47.865Z,4.60
2019-03-25T02:21:16.321Z,4.70
2019-03-25T02:23:44.727Z,4.50
2019-03-25T02:26:13.206Z,4.50
2019-03-25T02:28:41.606Z,4.40
2019-03-25T02:31:10.099Z,4.50
2019-03-25T02:33:38.474Z,4.40
2019-03-25T02:36:06.925Z,4.40
2019-03-25T02:38:36.284Z,4.40
2019-03-25T02:41:04.733Z,4.30
2019-03-25T02:43:33.086Z,4.30
2019-03-25T02:46:01.487Z,4.20
2019-03-25T02:48:29.924Z,4.20
2019-03-25T02:50:58.345Z,4.10
2019-03-25T02:53:26.740Z,4.20
2019-03-25T02:55:55.153Z,4.20
2019-03-25T02:58:23.546Z,4.10
2019-03-25T03:00:52.029Z,4.10
2019-03-25T03:03:20.656Z,4.10
2019-03-25T03:05:50.089Z,4.10
2019-03-25T03:08:18.481Z,4.00
2019-03-25T03:10:46.875Z,4.10
2019-03-25T03:13:15.391Z,4.10
2019-03-25T03:15:43.784Z,4.00
2019-03-25T03:18:12.177Z,4.00
2019-03-25T03:20:40.796Z,4.10
2019-03-25T03:23:09.231Z,4.10
2019-03-25T03:25:37.650Z,4.10
2019-03-25T03:28:06.041Z,4.10
2019-03-25T03:30:34.447Z,4.10
2019-03-25T03:33:02.865Z,4.10
2019-03-25T03:35:31.295Z,4.00
2019-03-25T03:37:59.689Z,4.00
2019-03-25T03:40:28.072Z,4.00
2019-03-25T03:42:56.574Z,4.00
2019-03-25T03:45:25.506Z,4.00
2019-03-25T03:47:57.243Z,4.00
2019-03-25T03:50:26.935Z,4.10
2019-03-25T03:52:55.420Z,4.20
2019-03-25T03:55:24.081Z,4.20
2019-03-25T03:57:52.953Z,4.30
2019-03-25T04:00:29.732Z,4.30
2019-03-25T04:02:58.375Z,4.20
2019-03-25T04:05:26.806Z,4.20
2019-03-25T04:07:55.214Z,4.20
2019-03-25T04:10:23.650Z,4.10
2019-03-25T04:12:52.039Z,4.10
2019-03-25T04:15:28.852Z,4.10
2019-03-25T04:17:57.950Z,4.00
2019-03-25T04:20:26.316Z,4.10
2019-03-25T04:22:54.752Z,4.20
2019-03-25T04:25:23.129Z,4.20
2019-03-25T04:27:51.517Z,4.20
2019-03-25T04:30:20.007Z,4.20
2019-03-25T04:32:48.501Z,4.30
2019-03-25T04:35:16.867Z,4.30
2019-03-25T04:37:45.393Z,4.40
2019-03-25T04:40:13.782Z,4.50
2019-03-25T04:42:42.215Z,4.50
2019-03-25T04:45:10.653Z,4.60
2019-03-25T04:47:39.029Z,4.70
2019-03-25T04:50:07.475Z,4.70
2019-03-25T04:52:35.906Z,4.80
2019-03-25T04:55:05.589Z,4.80
2019-03-25T04:57:33.989Z,4.80
2019-03-25T05:00:02.363Z,4.60
2019-03-25T05:02:30.849Z,4.50
2019-03-25T05:05:03.526Z,4.50
2019-03-25T05:07:32.180Z,4.50
2019-03-25T05:10:00.634Z,4.50
2019-03-25T05:12:29.061Z,4.60
2019-03-25T05:14:57.490Z,4.60
2019-03-25T05:17:25.878Z,4.50
2019-03-25T05:19:54.265Z,4.60
2019-03-25T05:22:22.721Z,4.60
2019-03-25T05:24:51.137Z,4.60
2019-03-25T05:27:19.561Z,4.70
2019-03-25T05:29:47.959Z,4.70
2019-03-25T05:32:17.347Z,4.70
2019-03-25T05:34:45.745Z,4.70
2019-03-25T05:37:14.209Z,4.70
2019-03-25T05:39:42.610Z,4.70
2019-03-25T05:42:11.045Z,4.70
2019-03-25T05:44:39.525Z,4.70
2019-03-25T05:47:08.015Z,4.80
2019-03-25T05:49:36.453Z,4.60
2019-03-25T05:52:04.850Z,4.60
2019-03-25T05:54:33.240Z,4.40
2019-03-25T05:57:02.626Z,4.40
2019-03-25T05:59:31.530Z,4.40
2019-03-25T06:01:59.994Z,4.50
2019-03-25T06:04:28.417Z,4.50
2019-03-25T06:06:56.817Z,4.50
2019-03-25T06:09:25.224Z,4.50
2019-03-25T06:11:54.609Z,4.50
2019-03-25T06:14:23.043Z,4.40
2019-03-25T06:16:51.421Z,4.40
2019-03-25T06:19:19.836Z,4.50
2019-03-25T06:21:48.235Z,4.50
2019-03-25T06:24:16.636Z,4.60
2019-03-25T06:26:45.090Z,4.60
2019-03-25T06:29:13.460Z,4.70
2019-03-25T06:31:41.867Z,4.70
2019-03-25T06:34:10.275Z,4.70
2019-03-25T06:36:38.713Z,4.70
2019-03-25T06:39:07.097Z,4.70
2019-03-25T06:41:35.480Z,4.80
2019-03-25T06:44:03.883Z,4.80
2019-03-25T06:46:32.297Z,4.80
2019-03-25T06:49:00.727Z,4.90
2019-03-25T06:51:29.106Z,5.10
2019-03-25T06:53:57.509Z,5.10
2019-03-25T06:56:25.890Z,5.30
2019-03-25T06:58:54.444Z,5.40
2019-03-25T07:01:22.832Z,5.50
2019-03-25T07:03:51.246Z,5.50
2019-03-25T07:06:19.660Z,5.50
2019-03-25T07:08:48.046Z,5.50
2019-03-25T07:11:16.466Z,5.70
2019-03-25T07:13:44.849Z,5.80
2019-03-25T07:16:13.259Z,5.70
2019-03-25T07:18:41.641Z,5.40
2019-03-25T07:21:10.046Z,5.20
2019-03-25T07:23:38.523Z,5.00
2019-03-25T07:26:07.894Z,4.90
2019-03-25T07:28:38.614Z,5.00
2019-03-25T07:31:06.314Z,5.10
2019-03-25T07:33:34.767Z,5.20
2019-03-25T07:36:03.421Z,5.10
2019-03-25T07:38:31.829Z,5.10
2019-03-25T07:41:00.219Z,5.10
2019-03-25T07:43:28.674Z,5.20
2019-03-25T07:46:00.146Z,5.50
2019-03-25T07:48:28.542Z,6.00
2019-03-25T07:50:56.931Z,6.30
2019-03-25T07:53:25.523Z,6.60
2019-03-25T07:55:53.938Z,6.90
2019-03-25T07:58:22.317Z,7.20
2019-03-25T08:00:50.721Z,6.90
2019-03-25T08:03:19.148Z,6.80
2019-03-25T08:05:47.581Z,6.60
2019-03-25T08:08:16.011Z,6.70
2019-03-25T08:10:44.392Z,7.20
2019-03-25T08:13:12.815Z,7.50
2019-03-25T08:15:41.318Z,7.60
2019-03-25T08:18:09.744Z,7.60
2019-03-25T08:20:38.182Z,7.30
2019-03-25T08:23:06.583Z,6.80
2019-03-25T08:25:35.029Z,6.50
2019-03-25T08:28:03.418Z,6.40
2019-03-25T08:30:31.845Z,6.50
2019-03-25T08:33:00.252Z,6.70
2019-03-25T08:35:28.680Z,6.90
2019-03-25T08:37:57.174Z,7.50
2019-03-25T08:40:25.614Z,7.90
2019-03-25T08:42:53.982Z,8.00
2019-03-25T08:45:22.433Z,8.00
2019-03-25T08:47:50.831Z,8.00
2019-03-25T08:50:19.239Z,8.20
2019-03-25T08:52:47.668Z,8.40
2019-03-25T08:55:16.210Z,8.40
2019-03-25T08:57:44.597Z,8.90
2019-03-25T09:00:13.111Z,9.50
2019-03-25T09:02:41.522Z,8.70
2019-03-25T09:05:09.987Z,8.30
2019-03-25T09:07:38.384Z,8.60
2019-03-25T09:10:09.767Z,7.90
2019-03-25T09:12:38.146Z,8.10
2019-03-25T09:15:09.814Z,9.00
2019-03-25T09:17:38.261Z,8.70
2019-03-25T09:20:07.302Z,8.70
2019-03-25T09:22:35.743Z,8.60
2019-03-25T09:25:06.188Z,9.30
2019-03-25T09:27:34.579Z,9.40
2019-03-25T09:30:03.920Z,8.40
2019-03-25T09:32:32.327Z,8.00
2019-03-25T09:35:00.713Z,8.10
2019-03-25T09:37:29.243Z,9.00
2019-03-25T09:39:57.675Z,9.30
2019-03-25T09:42:26.046Z,8.90
2019-03-25T09:44:54.467Z,8.30
2019-03-25T09:47:22.913Z,8.50
2019-03-25T09:49:51.309Z,8.60
2019-03-25T09:52:20.709Z,9.00
2019-03-25T09:54:49.086Z,9.80
2019-03-25T09:57:19.474Z,9.80
2019-03-25T09:59:47.608Z,9.90
2019-03-25T10:02:16.033Z,10.40
2019-03-25T10:04:44.433Z,11.20
2019-03-25T10:07:16.094Z,10.60
2019-03-25T10:09:44.502Z,10.70
2019-03-25T10:12:12.889Z,11.20
2019-03-25T10:14:41.451Z,9.80
2019-03-25T10:17:09.831Z,9.50
2019-03-25T10:19:38.207Z,9.10
2019-03-25T10:22:06.618Z,8.60
2019-03-25T10:24:35.001Z,8.80
2019-03-25T10:27:03.409Z,9.50
2019-03-25T10:29:31.794Z,10.20
2019-03-25T10:32:01.167Z,10.50
2019-03-25T10:34:29.554Z,11.40
2019-03-25T10:36:57.987Z,10.90
2019-03-25T10:39:26.457Z,10.40
2019-03-25T10:41:54.846Z,10.00
2019-03-25T10:44:30.673Z,9.70
2019-03-25T10:46:59.065Z,10.50
2019-03-25T10:49:27.470Z,10.90
2019-03-25T10:51:55.915Z,9.70
2019-03-25T10:54:24.395Z,10.20
2019-03-25T10:56:53.770Z,10.80
2019-03-25T10:59:22.176Z,11.20
2019-03-25T11:01:50.585Z,11.50
2019-03-25T11:04:19.006Z,11.10
2019-03-25T11:06:47.410Z,10.80
2019-03-25T11:09:15.819Z,10.80
2019-03-25T11:11:44.211Z,11.00
2019-03-25T11:14:12.627Z,10.20
2019-03-25T11:16:41.065Z,10.50
2019-03-25T11:19:09.573Z,10.70
2019-03-25T11:21:37.993Z,9.40
2019-03-25T11:24:06.421Z,8.60
2019-03-25T11:26:34.858Z,8.00
2019-03-25T11:29:08.332Z,7.90
2019-03-25T11:31:33.254Z,8.60
2019-03-25T11:34:01.638Z,9.60
2019-03-25T11:36:30.053Z,10.40
2019-03-25T11:38:58.473Z,10.60
2019-03-25T11:41:26.906Z,9.50
2019-03-25T11:43:55.338Z,9.30
2019-03-25T11:46:23.783Z,9.40
2019-03-25T11:48:52.190Z,9.60
2019-03-25T11:51:20.659Z,9.40
2019-03-25T11:53:49.050Z,9.20
2019-03-25T11:56:17.458Z,9.30
2019-03-25T11:58:46.047Z,9.10
2019-03-25T12:01:15.407Z,10.00
2019-03-25T12:03:43.822Z,9.30
2019-03-25T12:06:12.263Z,8.80
2019-03-25T12:08:40.637Z,9.50
2019-03-25T12:11:09.034Z,10.40
2019-03-25T12:13:37.478Z,11.20
2019-03-25T12:16:05.856Z,10.90
2019-03-25T12:18:34.337Z,10.40
2019-03-25T12:21:02.787Z,10.80
2019-03-25T12:23:31.202Z,10.80
2019-03-25T12:25:59.606Z,10.80
2019-03-25T12:28:28.036Z,10.70
2019-03-25T12:30:56.434Z,11.00
2019-03-25T12:33:24.833Z,11.50
2019-03-25T12:35:53.248Z,11.50
2019-03-25T12:38:21.634Z,11.40
2019-03-25T12:40:50.158Z,10.40
2019-03-25T12:43:18.570Z,9.10
2019-03-25T12:45:47.934Z,9.10
2019-03-25T12:48:16.404Z,10.10
2019-03-25T12:50:45.837Z,10.40
2019-03-25T12:53:14.222Z,10.40
2019-03-25T12:55:43.593Z,10.60
2019-03-25T12:58:12.058Z,10.20
2019-03-25T13:00:42.275Z,9.80
2019-03-25T13:03:10.743Z,9.70
2019-03-25T13:05:39.183Z,9.40
2019-03-25T13:08:07.582Z,9.60
2019-03-25T13:10:36.117Z,9.90
2019-03-25T13:13:04.648Z,9.60
2019-03-25T13:15:40.513Z,9.60
2019-03-25T13:18:08.922Z,9.50
2019-03-25T13:20:42.416Z,9.10
2019-03-25T13:23:10.831Z,9.50
2019-03-25T13:25:39.626Z,10.50
2019-03-25T13:28:08.129Z,10.80
2019-03-25T13:30:36.530Z,10.50
2019-03-25T13:33:04.936Z,10.30
2019-03-25T13:35:33.327Z,10.00
2019-03-25T13:38:01.797Z,9.90
2019-03-25T13:40:30.241Z,9.50
2019-03-25T13:42:58.752Z,9.60
2019-03-25T13:45:27.131Z,9.40
2019-03-25T13:47:55.508Z,10.50
2019-03-25T13:50:23.992Z,11.20
2019-03-25T13:52:52.377Z,12.10
2019-03-25T13:55:20.854Z,11.30
2019-03-25T13:57:49.279Z,11.60
2019-03-25T14:00:20.992Z,11.00
2019-03-25T14:02:49.777Z,10.90
2019-03-25T14:05:18.216Z,10.10
2019-03-25T14:07:46.590Z,9.90
2019-03-25T14:10:15.000Z,9.90
2019-03-25T14:12:43.434Z,9.80
2019-03-25T14:15:11.854Z,9.60
2019-03-25T14:17:40.264Z,9.90
2019-03-25T14:20:08.684Z,10.70
2019-03-25T14:22:37.090Z,10.90
2019-03-25T14:25:06.287Z,10.80
2019-03-25T14:27:34.702Z,10.40
2019-03-25T14:30:13.694Z,10.00
2019-03-25T14:32:33.621Z,9.90
2019-03-25T14:35:02.122Z,9.80
2019-03-25T14:37:30.852Z,9.60
2019-03-25T14:39:59.221Z,9.60
2019-03-25T14:42:27.706Z,9.70
2019-03-25T14:44:56.109Z,9.50
2019-03-25T14:47:24.505Z,9.30
2019-03-25T14:49:53.053Z,9.00
2019-03-25T14:52:21.422Z,9.00
2019-03-25T14:54:49.996Z,9.00
2019-03-25T14:57:18.433Z,9.10
2019-03-25T14:59:46.945Z,9.20
2019-03-25T15:02:16.979Z,9.10
2019-03-25T15:04:45.444Z,9.00
2019-03-25T15:07:13.826Z,9.00
2019-03-25T15:09:42.245Z,9.10
2019-03-25T15:12:10.783Z,9.10
2019-03-25T15:14:39.218Z,9.20
2019-03-25T15:17:07.719Z,9.00
2019-03-25T15:19:36.114Z,9.10
2019-03-25T15:22:04.593Z,9.10
2019-03-25T15:24:33.117Z,9.00
2019-03-25T15:27:03.185Z,9.10
2019-03-25T15:29:31.640Z,9.20
2019-03-25T15:32:00.175Z,9.20
2019-03-25T15:34:28.625Z,9.30
2019-03-25T15:36:57.003Z,9.20
2019-03-25T15:39:25.535Z,9.20
2019-03-25T15:41:53.915Z,9.10
2019-03-25T15:44:22.373Z,9.20
2019-03-25T15:46:55.673Z,9.20
2019-03-25T15:49:20.785Z,9.10
2019-03-25T15:51:49.309Z,9.00
2019-03-25T15:54:17.705Z,8.90
2019-03-25T15:56:46.147Z,8.80
2019-03-25T15:59:14.554Z,8.90
2019-03-25T16:01:42.997Z,8.80
2019-03-25T16:04:11.464Z,8.80
2019-03-25T16:06:39.850Z,8.90
2019-03-25T16:09:08.753Z,9.00
2019-03-25T16:11:37.150Z,9.00
2019-03-25T16:14:05.529Z,8.80
2019-03-25T16:16:33.971Z,8.70
2019-03-25T16:19:02.351Z,8.60
2019-03-25T16:21:30.761Z,8.70
2019-03-25T16:23:59.166Z,8.70
2019-03-25T16:26:27.557Z,8.70
2019-03-25T16:28:55.941Z,8.70
2019-03-25T16:31:24.389Z,8.70
2019-03-25T16:33:59.889Z,8.70
2019-03-25T16:36:28.361Z,8.50
2019-03-25T16:38:56.734Z,8.50
2019-03-25T16:41:25.179Z,8.50
2019-03-25T16:43:53.595Z,8.60
2019-03-25T16:46:21.993Z,8.60
2019-03-25T16:48:50.402Z,8.50
2019-03-25T16:51:18.786Z,8.40
2019-03-25T16:53:47.234Z,8.40
2019-03-25T16:56:15.653Z,8.30
2019-03-25T16:58:44.093Z,8.30
2019-03-25T17:01:12.509Z,8.30
2019-03-25T17:03:40.953Z,8.40
2019-03-25T17:06:09.362Z,8.30
2019-03-25T17:08:37.810Z,8.30
2019-03-25T17:11:06.214Z,8.30
2019-03-25T17:13:34.577Z,8.20
2019-03-25T17:16:02.991Z,8.30
2019-03-25T17:18:31.411Z,8.20
2019-03-25T17:20:59.817Z,8.20
2019-03-25T17:23:30.943Z,8.10
2019-03-25T17:25:59.375Z,8.10
2019-03-25T17:28:27.782Z,8.00
2019-03-25T17:30:57.228Z,7.90
2019-03-25T17:33:25.638Z,7.80
2019-03-25T17:35:54.027Z,7.80
2019-03-25T17:38:22.472Z,7.80
2019-03-25T17:40:50.874Z,7.70
2019-03-25T17:43:19.256Z,7.70
2019-03-25T17:45:48.686Z,7.70
2019-03-25T17:48:17.101Z,7.70
2019-03-25T17:50:45.526Z,7.60
2019-03-25T17:53:13.909Z,7.60
2019-03-25T17:55:42.429Z,7.50
2019-03-25T17:58:10.810Z,7.50
2019-03-25T18:00:58.286Z,7.50
2019-03-25T18:03:26.745Z,7.40
2019-03-25T18:05:55.182Z,7.30
2019-03-25T18:08:23.613Z,7.30
2019-03-25T18:10:51.987Z,7.30
2019-03-25T18:13:22.556Z,7.20
2019-03-25T18:15:50.496Z,7.20
2019-03-25T18:18:18.886Z,7.10
2019-03-25T18:20:47.265Z,7.10
2019-03-25T18:23:15.677Z,7.00
2019-03-25T18:25:45.017Z,7.00
2019-03-25T18:28:13.425Z,6.90
2019-03-25T18:30:41.824Z,6.90
2019-03-25T18:33:10.365Z,6.90
2019-03-25T18:35:38.739Z,6.80
2019-03-25T18:38:07.170Z,6.80
2019-03-25T18:40:35.619Z,6.80
2019-03-25T18:43:03.985Z,6.70
2019-03-25T18:45:32.427Z,6.70
2019-03-25T18:48:00.837Z,6.70
2019-03-25T18:50:29.284Z,6.70
2019-03-25T18:52:57.680Z,6.60
2019-03-25T18:55:26.146Z,6.60
2019-03-25T18:57:54.559Z,6.60
2019-03-25T19:00:33.907Z,6.60
2019-03-25T19:03:02.290Z,6.60
2019-03-25T19:05:31.026Z,6.70
2019-03-25T19:08:01.043Z,6.60
2019-03-25T19:10:29.707Z,6.60
2019-03-25T19:12:58.169Z,6.50
2019-03-25T19:15:27.876Z,6.40
2019-03-25T19:17:56.284Z,6.40
2019-03-25T19:20:24.693Z,6.40
2019-03-25T19:22:53.178Z,6.30
2019-03-25T19:25:21.563Z,6.30
2019-03-25T19:27:49.943Z,6.30
2019-03-25T19:30:19.384Z,6.30
2019-03-25T19:32:47.875Z,6.30
2019-03-25T19:35:16.298Z,6.30
2019-03-25T19:37:44.678Z,6.20
2019-03-25T19:40:13.092Z,6.20
2019-03-25T19:42:41.605Z,6.10
2019-03-25T19:45:10.045Z,6.10
2019-03-25T19:47:38.596Z,6.10
2019-03-25T19:50:07.309Z,6.00
2019-03-25T19:52:35.659Z,6.00
2019-03-25T19:55:04.589Z,6.00
2019-03-25T19:57:33.001Z,6.00
2019-03-25T20:00:01.412Z,5.90
2019-03-25T20:02:29.849Z,5.90
2019-03-25T20:04:58.260Z,5.90
2019-03-25T20:07:26.686Z,5.90
2019-03-25T20:09:55.104Z,5.90
2019-03-25T20:12:23.546Z,5.80
2019-03-25T20:15:03.979Z,5.80
2019-03-25T20:17:30.636Z,5.80
2019-03-25T20:19:59.035Z,5.70
2019-03-25T20:22:27.579Z,5.80
2019-03-25T20:24:56.057Z,5.80
2019-03-25T20:27:24.512Z,5.80
2019-03-25T20:29:52.922Z,5.80
2019-03-25T20:32:31.169Z,5.80
2019-03-25T20:34:51.644Z,5.80
2019-03-25T20:37:20.157Z,5.80
2019-03-25T20:39:48.476Z,5.80
2019-03-25T20:42:17.320Z,5.80
2019-03-25T20:44:45.717Z,5.80
2019-03-25T20:47:14.261Z,5.80
2019-03-25T20:49:42.697Z,5.80
2019-03-25T20:52:11.182Z,5.80
2019-03-25T20:54:39.622Z,5.80
2019-03-25T20:57:08.067Z,5.70
2019-03-25T20:59:36.487Z,5.80
2019-03-25T21:02:04.870Z,5.80
2019-03-25T21:04:33.281Z,5.80
2019-03-25T21:07:01.759Z,5.70
2019-03-25T21:09:30.213Z,5.70
2019-03-25T21:11:58.701Z,5.70
2019-03-25T21:14:28.693Z,5.70
2019-03-25T21:16:57.045Z,5.60
2019-03-25T21:19:25.489Z,5.70
2019-03-25T21:21:54.925Z,5.70
2019-03-25T21:24:23.358Z,5.70
2019-03-25T21:26:51.748Z,5.60
2019-03-25T21:29:20.163Z,5.70
2019-03-25T21:31:48.565Z,5.60
2019-03-25T21:34:16.995Z,5.50
2019-03-25T21:36:45.497Z,5.60
2019-03-25T21:39:13.994Z,5.60
2019-03-25T21:41:43.701Z,5.50
2019-03-25T21:44:12.243Z,5.60
2019-03-25T21:46:40.669Z,5.50
2019-03-25T21:49:09.085Z,5.60
2019-03-25T21:51:37.508Z,5.50
2019-03-25T21:54:06.962Z,5.60
2019-03-25T21:56:35.423Z,5.60
2019-03-25T21:59:03.865Z,5.50
2019-03-25T22:01:32.320Z,5.40
2019-03-25T22:04:01.099Z,5.40
2019-03-25T22:06:29.544Z,5.40
2019-03-25T22:08:57.932Z,5.40
2019-03-25T22:11:26.469Z,5.40
2019-03-25T22:13:54.881Z,5.40
2019-03-25T22:16:23.396Z,5.40
2019-03-25T22:18:51.816Z,5.50
2019-03-25T22:21:20.393Z,5.40
2019-03-25T22:23:48.847Z,5.30
2019-03-25T22:26:17.230Z,5.40
2019-03-25T22:28:45.647Z,5.40
2019-03-25T22:31:14.029Z,5.40
2019-03-25T22:33:42.925Z,5.40
2019-03-25T22:36:11.272Z,5.40
2019-03-25T22:38:39.774Z,5.40
2019-03-25T22:41:08.151Z,5.40
2019-03-25T22:43:36.596Z,5.50
2019-03-25T22:46:04.978Z,5.60
2019-03-25T22:48:33.387Z,5.60
2019-03-25T22:51:01.836Z,5.70
2019-03-25T22:53:30.238Z,5.70
2019-03-25T22:55:58.687Z,5.90
2019-03-25T22:58:27.106Z,6.00
2019-03-25T23:00:55.642Z,6.00
2019-03-25T23:03:24.027Z,6.10
2019-03-25T23:05:53.547Z,6.10
2019-03-25T23:08:22.011Z,6.10
2019-03-25T23:10:54.426Z,6.10
2019-03-25T23:13:22.816Z,6.20
2019-03-25T23:15:51.193Z,6.20
2019-03-25T23:18:19.669Z,6.20
2019-03-25T23:20:48.075Z,6.30
2019-03-25T23:23:16.471Z,6.30
2019-03-25T23:25:45.873Z,6.30
2019-03-25T23:28:14.285Z,6.30
2019-03-25T23:30:42.663Z,6.30
2019-03-25T23:33:11.141Z,6.30
2019-03-25T23:35:39.559Z,6.30
2019-03-25T23:38:07.965Z,6.30
2019-03-25T23:40:36.417Z,6.40
2019-03-25T23:43:04.847Z,6.30
2019-03-25T23:45:33.250Z,6.30
2019-03-25T23:48:01.706Z,6.30
2019-03-25T23:50:30.180Z,6.40
2019-03-25T23:52:58.596Z,6.40
2019-03-25T23:55:27.035Z,6.40
2019-03-25T23:57:55.512Z,6.40
